Time;durP1;ratioP1;P1;durP2;ratioP2;P2;SDS_P1;SDS_P2;PMS_P1;PMS_P2;Temp;Humidity;BMP_temperature;BMP_pressure;BME280_temperature;BME280_humidity;BME280_pressure;Samples;Min_cycle;Max_cycle;Signal;HPM_P1;HPM_P2
2021/05/31 00:01:50;;;;;;;7.87;5.40;;;12.90;99.90;;;;;;5071550;28;20221;-59
2021/05/31 00:04:16;;;;;;;10.90;5.53;;;12.90;99.90;;;;;;5072786;28;20274;-59
2021/05/31 00:06:50;;;;;;;8.07;4.80;;;12.80;99.90;;;;;;5072932;28;20230;-59
2021/05/31 00:09:16;;;;;;;11.13;5.07;;;12.80;99.90;;;;;;5072831;28;20216;-61
2021/05/31 00:11:43;;;;;;;6.73;4.60;;;12.80;99.90;;;;;;5072984;28;20204;-60
2021/05/31 00:14:09;;;;;;;6.37;4.87;;;12.80;99.90;;;;;;5072811;28;20278;-60
2021/05/31 00:16:36;;;;;;;10.07;5.03;;;12.80;99.90;;;;;;5072705;28;20234;-59
2021/05/31 00:19:03;;;;;;;9.03;5.00;;;12.80;99.90;;;;;;5071393;28;20205;-58
2021/05/31 00:21:29;;;;;;;8.10;4.60;;;12.80;99.90;;;;;;5072122;28;20210;-53
2021/05/31 00:23:56;;;;;;;8.07;5.53;;;12.80;99.90;;;;;;5072573;28;20213;-59
2021/05/31 00:26:22;;;;;;;9.10;5.30;;;12.70;99.90;;;;;;5071998;28;20236;-57
2021/05/31 00:28:48;;;;;;;7.87;4.73;;;12.70;99.90;;;;;;5072279;28;20201;-59
2021/05/31 00:31:16;;;;;;;7.30;4.70;;;12.70;99.90;;;;;;5071803;28;20204;-54
2021/05/31 00:33:43;;;;;;;6.87;4.80;;;12.70;99.90;;;;;;5070556;28;20757;-59
2021/05/31 00:36:09;;;;;;;7.30;5.00;;;12.60;99.90;;;;;;5072033;28;20225;-57
2021/05/31 00:38:36;;;;;;;9.87;5.50;;;12.60;99.90;;;;;;5072141;28;20205;-59
2021/05/31 00:41:03;;;;;;;9.00;4.97;;;12.60;99.90;;;;;;5071941;28;20205;-55
2021/05/31 00:43:33;;;;;;;8.10;5.40;;;12.50;99.90;;;;;;5071673;28;20677;-56
2021/05/31 00:46:00;;;;;;;6.47;4.83;;;12.50;99.90;;;;;;5072354;28;20220;-54
2021/05/31 00:48:27;;;;;;;7.10;5.10;;;12.50;99.90;;;;;;5071963;28;20200;-58
2021/05/31 00:50:53;;;;;;;7.33;5.07;;;12.40;99.90;;;;;;5070162;28;20308;-58
2021/05/31 00:53:20;;;;;;;8.53;5.67;;;12.40;99.90;;;;;;5071949;28;20661;-57
2021/05/31 00:55:46;;;;;;;9.27;5.77;;;12.40;99.90;;;;;;5071849;28;20303;-56
2021/05/31 00:58:14;;;;;;;5.87;4.97;;;12.40;99.90;;;;;;5071923;28;20198;-58
2021/05/31 01:00:40;;;;;;;7.17;5.40;;;12.30;99.90;;;;;;5071390;28;20262;-58
2021/05/31 01:03:06;;;;;;;7.17;5.03;;;12.30;99.90;;;;;;5072103;28;20201;-58
2021/05/31 01:05:33;;;;;;;6.50;5.13;;;12.20;99.90;;;;;;5071709;28;20252;-59
2021/05/31 01:08:02;;;;;;;8.77;5.37;;;12.10;99.90;;;;;;5070369;28;20225;-57
2021/05/31 01:10:37;;;;;;;6.80;5.70;;;12.00;99.90;;;;;;5071574;28;20586;-56
2021/05/31 01:13:12;;;;;;;7.37;5.67;;;12.00;99.90;;;;;;5071511;28;20209;-56
2021/05/31 01:15:46;;;;;;;8.63;5.93;;;11.90;99.90;;;;;;5071480;28;20220;-58
2021/05/31 01:18:18;;;;;;;10.47;5.87;;;11.90;99.90;;;;;;5071483;28;20708;-58
2021/05/31 01:21:02;;;;;;;8.40;5.80;;;11.80;99.90;;;;;;5071272;28;20205;-55
2021/05/31 01:23:31;;;;;;;9.57;5.80;;;11.80;99.90;;;;;;5069807;28;20201;-54
2021/05/31 01:26:05;;;;;;;7.90;6.07;;;11.80;99.90;;;;;;5071871;28;20228;-58
2021/05/31 01:28:51;;;;;;;8.07;6.30;;;11.70;99.90;;;;;;5071749;28;20207;-59
2021/05/31 01:31:21;;;;;;;9.30;6.67;;;11.70;99.90;;;;;;5071022;28;20209;-56
2021/05/31 01:33:51;;;;;;;9.63;6.37;;;11.60;99.90;;;;;;5071035;28;20274;-57
2021/05/31 01:36:20;;;;;;;8.80;6.07;;;11.50;99.90;;;;;;5071670;28;20410;-58
2021/05/31 01:38:48;;;;;;;8.60;6.60;;;11.40;99.90;;;;;;5071792;28;20209;-55
2021/05/31 01:41:16;;;;;;;9.60;6.20;;;11.40;99.90;;;;;;5071152;28;20216;-58
2021/05/31 01:43:44;;;;;;;10.77;6.97;;;11.40;99.90;;;;;;5071426;28;20208;-56
2021/05/31 01:46:13;;;;;;;11.00;7.50;;;11.40;99.90;;;;;;5071160;28;20228;-58
2021/05/31 01:48:40;;;;;;;9.63;6.80;;;11.40;99.90;;;;;;5071343;28;20203;-55
2021/05/31 01:51:07;;;;;;;11.57;7.07;;;11.50;99.90;;;;;;5070987;28;20616;-58
2021/05/31 01:53:35;;;;;;;12.53;8.13;;;11.40;99.90;;;;;;5071312;28;20589;-57
2021/05/31 01:56:02;;;;;;;11.93;7.97;;;11.40;99.90;;;;;;5073650;28;20266;-51
2021/05/31 01:58:29;;;;;;;11.43;8.07;;;11.40;99.90;;;;;;5076087;28;20228;-59
2021/05/31 02:00:56;;;;;;;16.97;9.27;;;11.40;99.90;;;;;;5077375;28;20950;-59
2021/05/31 02:03:23;;;;;;;15.20;9.03;;;11.40;99.90;;;;;;5076243;28;20203;-52
2021/05/31 02:05:49;;;;;;;12.27;8.70;;;11.50;99.90;;;;;;5075509;28;20238;-59
2021/05/31 02:08:16;;;;;;;12.00;8.40;;;11.50;99.90;;;;;;5080563;28;20229;-59
2021/05/31 02:10:42;;;;;;;11.63;8.17;;;11.40;99.90;;;;;;5083139;28;20204;-59
2021/05/31 02:13:12;;;;;;;15.43;9.13;;;11.40;99.90;;;;;;5079688;28;20207;-59
2021/05/31 02:15:45;;;;;;;14.00;9.20;;;11.40;99.90;;;;;;5074642;28;20232;-57
2021/05/31 02:18:20;;;;;;;11.60;8.37;;;11.40;99.90;;;;;;5075115;28;20209;-58
2021/05/31 02:20:51;;;;;;;17.67;9.43;;;11.30;99.90;;;;;;5074725;28;20205;-59
2021/05/31 02:23:19;;;;;;;15.63;8.87;;;11.30;99.90;;;;;;5074605;28;20215;-59
2021/05/31 02:25:45;;;;;;;11.97;8.20;;;11.30;99.90;;;;;;5074559;28;20232;-58
2021/05/31 02:28:12;;;;;;;11.30;8.97;;;11.30;99.90;;;;;;5074339;28;20586;-59
2021/05/31 02:30:40;;;;;;;15.17;10.03;;;11.30;99.90;;;;;;5074445;28;20211;-60
2021/05/31 02:33:06;;;;;;;15.33;8.90;;;11.30;99.90;;;;;;5074308;28;20210;-58
2021/05/31 02:35:34;;;;;;;17.17;9.50;;;11.20;99.90;;;;;;5074380;28;20235;-56
2021/05/31 02:38:03;;;;;;;15.30;9.10;;;11.20;99.90;;;;;;5074431;28;20211;-59
2021/05/31 02:40:30;;;;;;;14.17;9.40;;;11.20;99.90;;;;;;5073942;28;20207;-59
2021/05/31 02:42:58;;;;;;;14.40;9.60;;;11.10;99.90;;;;;;5074292;28;20218;-57
2021/05/31 02:45:26;;;;;;;14.03;9.40;;;11.10;99.90;;;;;;5074127;28;20236;-59
2021/05/31 02:47:53;;;;;;;15.77;9.73;;;11.10;99.90;;;;;;5074454;28;20278;-52
2021/05/31 02:50:20;;;;;;;14.20;9.27;;;11.10;99.90;;;;;;5073834;28;20213;-55
2021/05/31 02:52:47;;;;;;;13.70;9.10;;;11.10;99.90;;;;;;5074253;28;20227;-56
2021/05/31 02:55:16;;;;;;;15.37;9.80;;;11.10;99.90;;;;;;5074540;28;20244;-58
2021/05/31 02:57:42;;;;;;;12.50;8.77;;;11.00;99.90;;;;;;5074349;28;20204;-55
2021/05/31 03:00:11;;;;;;;15.90;9.90;;;11.00;99.90;;;;;;5073997;28;20212;-56
2021/05/31 03:02:37;;;;;;;14.43;9.67;;;11.00;99.90;;;;;;5073616;28;20202;-53
2021/05/31 03:05:05;;;;;;;17.00;9.63;;;11.00;99.90;;;;;;5073900;28;20223;-54
2021/05/31 03:07:31;;;;;;;18.63;12.00;;;11.00;99.90;;;;;;5073021;28;20232;-54
2021/05/31 03:09:57;;;;;;;17.20;10.53;;;11.00;99.90;;;;;;5074990;28;20207;-57
2021/05/31 03:12:24;;;;;;;15.50;9.27;;;10.90;99.90;;;;;;5075561;28;20208;-58
2021/05/31 03:14:52;;;;;;;13.43;9.27;;;10.90;99.90;;;;;;5074001;28;20249;-59
2021/05/31 03:17:19;;;;;;;13.23;9.17;;;10.90;99.90;;;;;;5073763;28;20205;-59
2021/05/31 03:19:45;;;;;;;13.93;9.73;;;10.90;99.90;;;;;;5073472;28;20209;-59
2021/05/31 03:22:11;;;;;;;17.10;9.83;;;10.80;99.90;;;;;;5073059;28;20211;-59
2021/05/31 03:24:37;;;;;;;17.77;10.17;;;10.80;99.90;;;;;;5073720;28;20207;-59
2021/05/31 03:27:04;;;;;;;22.97;12.43;;;10.80;99.90;;;;;;5073517;28;20635;-59
2021/05/31 03:29:32;;;;;;;15.30;10.20;;;10.70;99.90;;;;;;5073335;28;20275;-60
2021/05/31 03:31:59;;;;;;;16.70;10.53;;;10.70;99.90;;;;;;5072582;28;20735;-62
2021/05/31 03:34:26;;;;;;;15.63;9.77;;;10.70;99.90;;;;;;5073201;28;20285;-59
2021/05/31 03:36:52;;;;;;;15.93;9.77;;;10.70;99.90;;;;;;5072886;28;20227;-59
2021/05/31 03:39:18;;;;;;;16.67;10.73;;;10.70;99.90;;;;;;5073233;28;20238;-59
2021/05/31 03:41:44;;;;;;;14.87;10.00;;;10.70;99.90;;;;;;5073098;28;20216;-57
2021/05/31 03:44:11;;;;;;;15.33;10.83;;;10.70;99.90;;;;;;5071543;28;20215;-59
2021/05/31 03:46:38;;;;;;;17.17;10.67;;;10.70;99.90;;;;;;5072944;28;20225;-59
2021/05/31 03:49:04;;;;;;;14.47;10.17;;;10.70;99.90;;;;;;5072991;28;20221;-58
2021/05/31 03:51:30;;;;;;;14.43;10.40;;;10.70;99.90;;;;;;5072442;28;20270;-57
2021/05/31 03:53:57;;;;;;;18.93;10.83;;;10.70;99.90;;;;;;5072575;28;20226;-58
2021/05/31 03:56:23;;;;;;;16.90;10.97;;;10.70;99.90;;;;;;5073299;28;20243;-59
2021/05/31 03:58:51;;;;;;;15.77;10.53;;;10.70;99.90;;;;;;5071591;28;20581;-59
2021/05/31 04:01:18;;;;;;;16.73;10.80;;;10.70;99.90;;;;;;5072686;28;20668;-58
2021/05/31 04:03:45;;;;;;;18.13;10.77;;;10.60;99.90;;;;;;5072417;28;20210;-57
2021/05/31 04:06:20;;;;;;;15.63;10.30;;;10.60;99.90;;;;;;5072750;28;20261;-58
2021/05/31 04:11:36;;;;;;;21.23;11.10;;;10.70;99.90;;;;;;5072613;28;20249;-57
2021/05/31 04:14:08;;;;;;;15.83;10.73;;;10.80;99.90;;;;;;5072212;28;20584;-57
2021/05/31 04:16:36;;;;;;;18.80;11.20;;;10.80;99.90;;;;;;5070939;28;20234;-57
2021/05/31 04:19:04;;;;;;;18.80;11.03;;;10.80;99.90;;;;;;5072047;28;20204;-53
2021/05/31 04:21:31;;;;;;;16.43;12.17;;;10.90;99.90;;;;;;5072053;28;20237;-56
2021/05/31 04:23:57;;;;;;;16.13;11.57;;;10.90;99.90;;;;;;5072044;28;20207;-58
2021/05/31 04:26:23;;;;;;;15.60;11.43;;;11.00;99.90;;;;;;5072125;28;20223;-56
2021/05/31 04:28:49;;;;;;;15.63;11.37;;;11.00;99.90;;;;;;5071944;28;20797;-57
2021/05/31 04:31:16;;;;;;;16.10;11.23;;;11.10;99.90;;;;;;5072273;28;20692;-58
2021/05/31 04:33:43;;;;;;;15.07;11.40;;;11.10;99.90;;;;;;5070419;28;20671;-56
2021/05/31 04:36:10;;;;;;;15.17;11.13;;;11.20;99.90;;;;;;5071576;28;20231;-54
2021/05/31 04:38:37;;;;;;;14.17;10.57;;;11.30;99.90;;;;;;5072036;28;20207;-57
2021/05/31 04:41:03;;;;;;;19.90;10.43;;;11.30;99.90;;;;;;5071837;28;20625;-59
2021/05/31 04:43:30;;;;;;;16.07;11.30;;;11.40;99.90;;;;;;5072030;28;20236;-58
2021/05/31 04:45:56;;;;;;;18.47;11.50;;;11.40;99.90;;;;;;5071713;28;20225;-57
2021/05/31 04:48:22;;;;;;;15.93;11.20;;;11.50;99.90;;;;;;5071835;28;20716;-58
2021/05/31 04:50:55;;;;;;;17.13;11.70;;;11.50;99.90;;;;;;5070265;28;20204;-55
2021/05/31 04:53:23;;;;;;;16.27;12.07;;;11.60;99.90;;;;;;5069903;28;20254;-58
2021/05/31 04:55:50;;;;;;;17.33;11.57;;;11.70;99.90;;;;;;5071307;28;20660;-56
2021/05/31 04:58:16;;;;;;;19.27;11.20;;;11.80;99.90;;;;;;5069937;28;20197;-59
2021/05/31 05:00:43;;;;;;;16.17;10.47;;;11.80;99.90;;;;;;5087833;28;20200;-59
2021/05/31 05:03:09;;;;;;;18.73;11.43;;;11.90;99.90;;;;;;5091992;28;20216;-57
2021/05/31 05:05:35;;;;;;;17.47;11.93;;;12.00;99.90;;;;;;5091737;28;20220;-58
2021/05/31 05:08:01;;;;;;;16.23;11.10;;;12.10;99.90;;;;;;5070317;28;20228;-59
2021/05/31 05:10:29;;;;;;;18.67;11.97;;;12.20;99.90;;;;;;5071146;28;20212;-59
2021/05/31 05:12:55;;;;;;;15.93;10.57;;;12.20;99.90;;;;;;5071839;28;20299;-58
2021/05/31 05:15:23;;;;;;;19.57;12.07;;;12.30;99.90;;;;;;5071132;28;20225;-60
2021/05/31 05:17:50;;;;;;;18.70;11.20;;;12.40;99.90;;;;;;5071321;28;20247;-62
2021/05/31 05:20:17;;;;;;;21.67;12.17;;;12.40;99.90;;;;;;5071412;28;20213;-60
2021/05/31 05:22:44;;;;;;;15.70;11.27;;;12.50;99.90;;;;;;5078569;28;20205;-59
2021/05/31 05:25:12;;;;;;;19.23;11.13;;;12.60;99.90;;;;;;5071350;28;20252;-61
2021/05/31 05:27:41;;;;;;;18.30;10.97;;;12.80;99.90;;;;;;5071247;28;20236;-60
2021/05/31 05:30:09;;;;;;;18.63;10.37;;;12.80;99.90;;;;;;5072068;28;20696;-61
2021/05/31 05:32:36;;;;;;;14.43;10.70;;;12.80;99.90;;;;;;5075566;28;20208;-60
2021/05/31 05:35:14;;;;;;;17.93;11.07;;;12.90;99.90;;;;;;5075690;28;20224;-60
2021/05/31 05:37:52;;;;;;;18.90;10.47;;;12.90;99.90;;;;;;5076206;28;20215;-61
2021/05/31 05:43:16;;;;;;;14.03;9.57;;;13.00;99.90;;;;;;5062137;28;20219;-60
2021/05/31 05:45:54;;;;;;;13.10;9.03;;;13.20;99.90;;;;;;5074940;28;20240;-61
2021/05/31 05:48:21;;;;;;;12.20;8.60;;;13.30;99.90;;;;;;5074792;28;20583;-59
2021/05/31 05:50:48;;;;;;;13.90;9.23;;;13.40;99.90;;;;;;5071752;28;20211;-62
2021/05/31 05:53:14;;;;;;;11.73;8.63;;;13.50;99.90;;;;;;5074517;28;20201;-60
2021/05/31 05:55:41;;;;;;;12.70;8.30;;;13.70;99.90;;;;;;5073423;28;20230;-60
2021/05/31 05:58:08;;;;;;;13.27;9.17;;;13.70;99.90;;;;;;5072653;28;20213;-61
2021/05/31 06:00:36;;;;;;;12.30;8.30;;;13.90;99.90;;;;;;5073118;28;20211;-58
2021/05/31 06:03:03;;;;;;;13.40;8.23;;;14.10;99.90;;;;;;5073697;28;20208;-59
2021/05/31 06:05:29;;;;;;;13.23;8.23;;;14.20;99.90;;;;;;5076489;28;20225;-60
2021/05/31 06:07:55;;;;;;;12.90;8.07;;;14.30;99.90;;;;;;5075765;28;20228;-60
2021/05/31 06:10:21;;;;;;;12.03;7.80;;;14.50;99.90;;;;;;5074370;28;20211;-58
2021/05/31 06:12:48;;;;;;;14.90;8.10;;;14.60;99.90;;;;;;5069872;28;20223;-61
2021/05/31 06:15:16;;;;;;;11.60;7.43;;;14.70;99.90;;;;;;5073381;28;20297;-61
2021/05/31 06:17:42;;;;;;;12.57;8.23;;;14.80;99.90;;;;;;5073141;28;20205;-60
2021/05/31 06:20:09;;;;;;;10.70;7.30;;;14.90;99.90;;;;;;5072731;28;20204;-60
2021/05/31 06:22:40;;;;;;;12.40;7.77;;;15.00;99.90;;;;;;5072932;28;20212;-61
2021/05/31 06:25:08;;;;;;;14.20;7.30;;;15.10;99.90;;;;;;5072950;28;20764;-60
2021/05/31 06:27:35;;;;;;;14.80;7.60;;;15.20;99.90;;;;;;5072665;28;20221;-60
2021/05/31 06:30:01;;;;;;;10.47;7.10;;;15.40;99.90;;;;;;5077512;28;20580;-60
2021/05/31 06:32:28;;;;;;;11.30;7.47;;;15.40;99.90;;;;;;5072628;28;20213;-60
2021/05/31 06:34:54;;;;;;;18.07;10.10;;;15.50;99.90;;;;;;5072820;28;20205;-62
2021/05/31 06:37:21;;;;;;;9.47;7.20;;;15.70;99.90;;;;;;5072958;28;20209;-60
2021/05/31 06:39:47;;;;;;;11.93;7.00;;;15.90;99.90;;;;;;5072698;28;20705;-62
2021/05/31 06:42:13;;;;;;;10.70;7.17;;;16.00;99.90;;;;;;5071637;28;20208;-60
2021/05/31 06:44:40;;;;;;;9.53;6.63;;;16.20;99.90;;;;;;5072927;28;20225;-61
2021/05/31 06:47:07;;;;;;;8.80;7.13;;;16.30;99.90;;;;;;5071328;28;20597;-61
2021/05/31 06:49:35;;;;;;;9.90;6.70;;;16.50;99.90;;;;;;5072700;28;20211;-61
2021/05/31 06:52:02;;;;;;;8.17;6.07;;;16.60;99.90;;;;;;5072100;28;20232;-60
2021/05/31 06:54:28;;;;;;;11.03;6.53;;;16.70;99.90;;;;;;5036327;28;1040521;-62
2021/05/31 06:56:54;;;;;;;8.67;6.03;;;16.90;99.90;;;;;;5074138;28;20229;-61
2021/05/31 06:59:20;;;;;;;11.33;6.87;;;17.10;99.90;;;;;;5073725;28;20208;-61
2021/05/31 07:01:47;;;;;;;11.97;6.70;;;17.10;99.90;;;;;;5073246;28;20231;-61
2021/05/31 07:04:13;;;;;;;13.43;6.27;;;17.30;99.90;;;;;;5071925;28;20680;-61
2021/05/31 07:06:40;;;;;;;11.23;6.80;;;17.40;99.90;;;;;;5073196;28;20232;-61
2021/05/31 07:09:07;;;;;;;9.80;6.77;;;17.50;99.90;;;;;;5073086;28;20743;-61
2021/05/31 07:11:33;;;;;;;11.53;6.37;;;17.60;99.90;;;;;;5073477;28;20285;-61
2021/05/31 07:14:01;;;;;;;11.17;6.13;;;17.70;99.90;;;;;;5073313;28;20213;-61
2021/05/31 07:16:29;;;;;;;10.97;5.87;;;17.90;99.90;;;;;;5073275;28;20638;-61
2021/05/31 07:18:55;;;;;;;11.03;6.10;;;18.00;99.90;;;;;;5073163;28;20205;-61
2021/05/31 07:21:21;;;;;;;10.57;6.07;;;18.10;99.90;;;;;;5071313;28;20216;-61
2021/05/31 07:23:49;;;;;;;9.90;6.23;;;18.00;99.90;;;;;;5073048;28;20209;-60
2021/05/31 07:26:15;;;;;;;12.20;6.13;;;18.30;99.90;;;;;;5072929;28;20224;-60
2021/05/31 07:28:41;;;;;;;10.17;6.07;;;18.50;99.90;;;;;;5073340;28;20290;-60
2021/05/31 07:31:08;;;;;;;10.17;6.10;;;18.50;99.90;;;;;;5073411;28;20319;-61
2021/05/31 07:33:34;;;;;;;11.73;5.87;;;18.60;99.90;;;;;;5073366;28;20205;-61
2021/05/31 07:36:02;;;;;;;10.43;6.20;;;18.50;99.90;;;;;;5072053;28;20229;-61
2021/05/31 07:38:28;;;;;;;8.40;5.50;;;18.60;99.90;;;;;;5072786;28;20209;-60
2021/05/31 07:40:56;;;;;;;11.97;5.83;;;18.50;99.90;;;;;;5072818;28;20205;-60
2021/05/31 07:43:22;;;;;;;9.07;6.30;;;18.50;99.90;;;;;;5072700;28;20201;-58
2021/05/31 07:45:48;;;;;;;12.83;6.60;;;18.60;99.90;;;;;;5072673;28;20261;-60
2021/05/31 07:48:15;;;;;;;8.33;5.17;;;18.80;99.90;;;;;;5073229;28;20754;-61
2021/05/31 07:50:41;;;;;;;9.90;5.90;;;19.00;99.90;;;;;;5072932;28;20589;-60
2021/05/31 07:53:07;;;;;;;9.47;5.37;;;19.00;99.90;;;;;;5071778;28;20587;-59
2021/05/31 07:55:33;;;;;;;7.60;4.93;;;19.00;99.90;;;;;;5072251;28;20239;-64
2021/05/31 07:58:00;;;;;;;9.97;5.80;;;18.90;99.90;;;;;;5077739;28;20212;-65
2021/05/31 08:00:29;;;;;;;14.53;9.50;;;19.10;99.90;;;;;;5072268;28;20201;-64
2021/05/31 08:02:55;;;;;;;11.23;5.90;;;19.20;99.90;;;;;;5071341;28;20201;-64
2021/05/31 08:05:23;;;;;;;11.30;5.17;;;19.30;99.90;;;;;;5071874;28;20225;-64
2021/05/31 08:07:50;;;;;;;9.77;5.20;;;19.50;99.90;;;;;;5072032;28;20286;-63
2021/05/31 08:10:16;;;;;;;6.87;4.77;;;19.80;99.90;;;;;;5072747;28;20205;-62
2021/05/31 08:12:42;;;;;;;10.87;4.93;;;19.80;99.90;;;;;;5070343;28;20220;-62
2021/05/31 08:15:12;;;;;;;10.03;5.20;;;20.10;99.90;;;;;;5072350;28;20241;-64
2021/05/31 08:17:39;;;;;;;10.33;5.90;;;20.30;99.90;;;;;;5072246;28;20487;-64
2021/05/31 08:20:07;;;;;;;11.53;6.30;;;20.40;99.90;;;;;;5071207;28;20215;-60
2021/05/31 08:22:33;;;;;;;8.97;4.80;;;20.50;99.90;;;;;;5071911;28;20629;-60
2021/05/31 08:25:00;;;;;;;8.70;5.40;;;20.50;99.90;;;;;;5071890;28;20204;-61
2021/05/31 08:27:26;;;;;;;9.03;5.73;;;20.60;99.90;;;;;;5070550;28;20746;-60
2021/05/31 08:29:52;;;;;;;8.80;6.47;;;20.50;99.90;;;;;;5071266;28;20212;-60
2021/05/31 08:32:20;;;;;;;10.63;7.37;;;20.20;99.90;;;;;;5071416;28;20213;-61
2021/05/31 08:34:46;;;;;;;9.93;5.97;;;20.20;99.90;;;;;;5071476;28;20216;-63
2021/05/31 08:37:13;;;;;;;10.93;6.10;;;20.20;99.90;;;;;;5071720;28;20205;-64
2021/05/31 08:39:41;;;;;;;12.37;6.90;;;20.30;99.90;;;;;;5071637;28;20295;-64
2021/05/31 08:42:07;;;;;;;9.60;5.10;;;20.40;99.90;;;;;;5071233;28;20212;-63
2021/05/31 08:44:34;;;;;;;10.07;5.33;;;20.50;99.90;;;;;;5070235;28;20205;-65
2021/05/31 08:47:02;;;;;;;10.57;6.27;;;20.40;99.90;;;;;;5071281;28;20278;-64
2021/05/31 08:49:30;;;;;;;8.73;4.97;;;20.50;99.90;;;;;;5071993;28;20205;-62
2021/05/31 08:51:56;;;;;;;10.43;5.77;;;20.60;99.90;;;;;;5070618;28;20201;-63
2021/05/31 08:54:22;;;;;;;8.87;6.30;;;20.80;99.90;;;;;;5071458;28;20637;-61
2021/05/31 08:56:49;;;;;;;10.30;6.83;;;20.80;99.90;;;;;;5071964;28;20248;-63
2021/05/31 08:59:16;;;;;;;19.40;6.57;;;20.90;99.90;;;;;;5071484;28;20208;-63
2021/05/31 09:01:42;;;;;;;10.37;5.97;;;20.70;99.90;;;;;;5069300;28;20605;-64
2021/05/31 09:04:13;;;;;;;9.90;5.13;;;20.80;99.90;;;;;;5071569;28;20205;-63
2021/05/31 09:06:41;;;;;;;10.57;5.77;;;20.90;99.90;;;;;;5071117;28;20286;-61
2021/05/31 09:09:07;;;;;;;9.47;6.10;;;20.90;99.90;;;;;;5071422;28;20225;-60
2021/05/31 09:11:34;;;;;;;8.77;5.70;;;20.60;99.90;;;;;;5070703;28;20205;-59
2021/05/31 09:14:01;;;;;;;13.00;5.60;;;20.30;99.90;;;;;;5071061;28;20211;-58
2021/05/31 09:16:28;;;;;;;9.30;5.80;;;20.30;99.90;;;;;;5069197;28;20225;-60
2021/05/31 09:18:56;;;;;;;9.37;5.27;;;20.50;99.90;;;;;;5071436;28;20205;-60
2021/05/31 09:21:25;;;;;;;7.97;4.87;;;20.60;99.90;;;;;;5070621;28;20579;-63
2021/05/31 09:23:55;;;;;;;9.23;6.03;;;20.60;99.90;;;;;;5070846;28;20213;-63
2021/05/31 09:26:21;;;;;;;10.80;5.80;;;20.60;99.90;;;;;;5071085;28;20236;-63
2021/05/31 09:28:58;;;;;;;9.80;5.60;;;20.70;99.90;;;;;;5070816;28;20701;-62
2021/05/31 09:31:26;;;;;;;15.07;5.70;;;20.50;99.90;;;;;;5070838;28;20205;-62
2021/05/31 09:34:01;;;;;;;12.10;5.47;;;20.40;99.90;;;;;;5070913;28;20209;-60
2021/05/31 09:36:28;;;;;;;12.23;5.70;;;20.60;99.90;;;;;;5070937;28;20264;-64
2021/05/31 09:38:57;;;;;;;8.23;5.27;;;20.90;99.90;;;;;;5071015;28;20677;-62
2021/05/31 09:41:28;;;;;;;7.90;4.93;;;21.10;99.90;;;;;;5070384;28;20270;-64
2021/05/31 09:43:56;;;;;;;10.70;5.40;;;21.20;99.90;;;;;;5070953;28;20216;-64
2021/05/31 09:46:37;;;;;;;11.07;6.07;;;21.00;99.90;;;;;;5070799;28;20731;-65
2021/05/31 09:49:11;;;;;;;10.97;6.03;;;20.80;99.90;;;;;;5070807;28;20278;-64
2021/05/31 09:51:51;;;;;;;9.40;5.70;;;20.80;99.90;;;;;;5069940;28;20226;-64
2021/05/31 09:54:35;;;;;;;9.00;5.70;;;20.70;99.90;;;;;;5069783;28;20216;-63
2021/05/31 09:57:14;;;;;;;9.80;6.60;;;20.60;99.90;;;;;;5071615;28;20233;-63
2021/05/31 09:59:41;;;;;;;9.07;6.00;;;20.60;99.90;;;;;;5072005;28;20208;-66
2021/05/31 10:02:09;;;;;;;10.70;6.27;;;20.50;99.90;;;;;;5069603;28;20212;-63
2021/05/31 10:04:43;;;;;;;8.60;5.93;;;20.60;99.90;;;;;;5071373;28;20215;-64
2021/05/31 10:07:18;;;;;;;7.93;5.50;;;20.40;99.90;;;;;;5072531;28;20258;-65
2021/05/31 10:09:47;;;;;;;7.80;5.33;;;20.00;99.90;;;;;;5074281;28;20205;-64
2021/05/31 10:12:13;;;;;;;7.87;5.60;;;20.10;99.90;;;;;;5070191;28;20209;-59
2021/05/31 10:14:41;;;;;;;7.90;5.97;;;20.40;99.90;;;;;;5070453;28;20212;-61
2021/05/31 10:17:07;;;;;;;6.97;5.23;;;20.70;99.90;;;;;;5072686;28;20212;-61
2021/05/31 10:19:36;;;;;;;4.70;3.50;;;21.00;99.90;;;;;;5074471;28;20209;-61
2021/05/31 10:22:02;;;;;;;7.73;4.00;;;21.00;99.90;;;;;;5073518;28;20260;-60
2021/05/31 10:24:29;;;;;;;9.67;5.00;;;21.00;99.90;;;;;;5074451;28;20205;-60
2021/05/31 10:26:57;;;;;;;7.60;5.37;;;21.00;99.90;;;;;;5073974;28;20228;-60
2021/05/31 10:29:24;;;;;;;6.97;4.57;;;21.20;99.90;;;;;;5074260;28;20221;-61
2021/05/31 10:31:50;;;;;;;6.90;4.70;;;21.30;99.90;;;;;;5073169;28;20200;-62
2021/05/31 10:34:21;;;;;;;8.20;5.30;;;21.50;99.90;;;;;;5074082;28;20577;-61
2021/05/31 10:36:50;;;;;;;8.03;5.63;;;21.70;99.90;;;;;;5073955;28;20229;-62
2021/05/31 10:39:25;;;;;;;8.57;6.50;;;21.50;99.90;;;;;;5073990;28;20201;-59
2021/05/31 10:42:02;;;;;;;8.17;4.97;;;21.50;99.90;;;;;;5073108;28;20213;-63
2021/05/31 10:44:31;;;;;;;8.50;4.77;;;21.30;99.90;;;;;;5073978;28;20593;-63
2021/05/31 10:47:06;;;;;;;8.27;4.50;;;21.40;99.90;;;;;;5074131;28;20278;-63
2021/05/31 10:49:32;;;;;;;6.87;4.33;;;21.50;99.90;;;;;;5073606;28;20231;-59
2021/05/31 10:51:59;;;;;;;5.77;3.83;;;21.80;99.90;;;;;;5073599;28;20621;-60
2021/05/31 10:54:25;;;;;;;9.17;4.07;;;22.00;99.90;;;;;;5074066;28;20224;-59
2021/05/31 10:57:04;;;;;;;7.20;4.20;;;22.00;99.90;;;;;;5074260;28;20231;-59
2021/05/31 10:59:32;;;;;;;5.20;3.67;;;21.70;99.90;;;;;;5073981;28;20207;-55
2021/05/31 11:01:59;;;;;;;6.07;3.90;;;21.80;99.90;;;;;;5073622;28;20252;-60
2021/05/31 11:04:26;;;;;;;6.80;4.07;;;21.90;99.90;;;;;;5073764;28;20204;-59
2021/05/31 11:06:54;;;;;;;7.30;4.20;;;21.90;99.90;;;;;;5073666;28;20847;-59
2021/05/31 11:09:24;;;;;;;6.73;4.33;;;21.80;99.90;;;;;;5073842;28;20252;-60
2021/05/31 11:11:52;;;;;;;6.67;4.03;;;21.70;99.90;;;;;;5073603;28;20209;-60
2021/05/31 11:14:32;;;;;;;6.40;4.47;;;21.70;99.90;;;;;;5073802;28;20208;-61
2021/05/31 11:17:00;;;;;;;6.63;4.07;;;21.30;99.90;;;;;;5073417;28;20229;-60
2021/05/31 11:19:34;;;;;;;5.53;4.17;;;21.20;99.90;;;;;;5073879;28;20208;-61
2021/05/31 11:22:11;;;;;;;6.77;4.00;;;21.20;99.90;;;;;;5070688;28;20205;-60
2021/05/31 11:24:37;;;;;;;7.43;4.10;;;21.30;99.90;;;;;;5073235;28;20200;-58
2021/05/31 11:27:04;;;;;;;7.97;5.07;;;21.10;99.90;;;;;;5073105;28;20236;-60
2021/05/31 11:29:31;;;;;;;7.87;4.57;;;21.30;99.90;;;;;;5073225;28;20224;-60
2021/05/31 11:31:57;;;;;;;9.67;4.83;;;21.60;99.90;;;;;;5073226;28;20204;-61
2021/05/31 11:34:24;;;;;;;7.00;3.93;;;21.70;99.90;;;;;;5073197;28;20205;-60
2021/05/31 11:36:51;;;;;;;10.17;6.83;;;21.90;99.90;;;;;;5073262;28;20229;-61
2021/05/31 11:39:18;;;;;;;6.40;4.00;;;21.80;99.90;;;;;;5070983;28;20686;-59
2021/05/31 11:41:46;;;;;;;8.60;4.27;;;21.60;99.90;;;;;;5072927;28;20204;-60
2021/05/31 11:44:15;;;;;;;6.87;4.90;;;21.30;99.90;;;;;;5072639;28;20256;-62
2021/05/31 11:46:50;;;;;;;10.10;4.37;;;21.40;99.90;;;;;;5072999;28;20220;-61
2021/05/31 11:49:17;;;;;;;7.33;4.30;;;21.70;99.90;;;;;;5073034;28;20224;-59
2021/05/31 11:51:53;;;;;;;7.07;4.63;;;22.00;99.90;;;;;;5072516;28;20224;-57
2021/05/31 11:54:21;;;;;;;8.13;4.53;;;22.20;99.90;;;;;;5070777;28;20609;-60
2021/05/31 11:56:47;;;;;;;5.73;4.40;;;22.10;99.90;;;;;;5072439;28;20232;-60
2021/05/31 11:59:16;;;;;;;6.33;4.33;;;22.30;99.90;;;;;;5073170;28;20200;-60
2021/05/31 12:01:51;;;;;;;9.53;4.90;;;22.20;99.90;;;;;;5072325;28;20208;-59
2021/05/31 12:04:17;;;;;;;7.23;4.20;;;22.30;99.90;;;;;;5072861;28;20714;-59
2021/05/31 12:06:44;;;;;;;6.30;4.40;;;22.30;99.90;;;;;;5072337;28;20221;-58
2021/05/31 12:09:16;;;;;;;6.87;3.70;;;22.40;99.90;;;;;;5072488;28;20316;-59
2021/05/31 12:11:42;;;;;;;8.27;4.53;;;22.50;99.90;;;;;;5070338;28;20201;-55
2021/05/31 12:14:08;;;;;;;9.80;6.03;;;22.70;99.90;;;;;;5072861;28;20235;-54
2021/05/31 12:16:35;;;;;;;9.30;5.37;;;22.80;99.90;;;;;;5072269;28;20717;-54
2021/05/31 12:19:13;;;;;;;6.03;4.47;;;22.80;99.90;;;;;;5072553;28;20216;-57
2021/05/31 12:21:40;;;;;;;7.57;4.40;;;22.80;99.90;;;;;;5072782;28;20208;-60
2021/05/31 12:24:08;;;;;;;8.20;4.80;;;22.70;99.90;;;;;;5073823;28;20209;-60
2021/05/31 12:26:34;;;;;;;6.87;4.37;;;22.40;99.90;;;;;;5072579;28;20232;-59
2021/05/31 12:29:03;;;;;;;6.20;4.23;;;22.10;99.90;;;;;;5070282;28;20269;-56
2021/05/31 12:31:33;;;;;;;6.13;4.63;;;21.90;99.90;;;;;;5072250;28;20209;-60
2021/05/31 12:33:59;;;;;;;8.03;4.93;;;22.10;99.90;;;;;;5072189;28;20209;-56
2021/05/31 12:36:29;;;;;;;8.40;5.40;;;22.20;99.90;;;;;;5072703;28;20619;-60
2021/05/31 12:38:56;;;;;;;7.67;4.63;;;22.30;99.90;;;;;;5075098;28;20205;-59
2021/05/31 12:41:23;;;;;;;9.23;5.50;;;22.40;99.90;;;;;;5074875;28;20201;-60
2021/05/31 12:43:50;;;;;;;7.97;5.20;;;22.60;99.90;;;;;;5072489;28;20224;-61
2021/05/31 12:46:17;;;;;;;7.77;5.13;;;22.70;99.90;;;;;;5070039;28;20751;-60
2021/05/31 12:48:43;;;;;;;9.40;4.90;;;22.70;99.90;;;;;;5071542;28;20821;-58
2021/05/31 12:51:13;;;;;;;8.17;5.43;;;22.40;99.90;;;;;;5071433;28;20278;-59